F/V Berriz Patxiku — ECES — position and weather

sailwx.info

Track history (hours):
 
Tides and Currents Weather Stations Pressure Air Temp Water Temp Dewpoint Dewpoint Depression Visibility Wind Speed Wind Dir Waves Ship Positions

F/V Berriz Patxiku

Last reported at 2016-Aug-25 12:33 UTC. Time now 2016-Aug-25 13:14 UTC.
Position N 43°18' W 002°12'.

Length 30 m.

Type: Fishing. MMSI: 224106260.

Date/timePositionNaut miles runAvg speedWind from/ knotsBaromVisibWave heightAir tempDewpointWater temp
2016-Aug-25 12:33N 43°18' W 002°12'0 0.1
2016-Aug-25 09:33N 43°18' W 002°12'1010.6
2016-Aug-25 08:33N 43°28' W 002°05'1110.5
2016-Aug-25 07:33N 43°37' W 001°59'3110.3
2016-Aug-25 04:33N 44°05' W 001°40'9 8.9
2016-Aug-25 03:33N 44°13' W 001°35'0 0.3
2016-Aug-25 02:33N 44°13' W 001°35'1 1.2
2016-Aug-25 01:17N 44°12' W 001°34'3 3.6
2016-Aug-25 00:20N 44°09' W 001°36'7 3.9
2016-Aug-24 22:33N 44°02' W 001°38'12 0.7
2016-Aug-24 04:22N 43°51' W 001°46'911.3
2016-Aug-24 03:33N 43°59' W 001°39'5 4.8
2016-Aug-24 02:33N 44°03' W 001°36'0 0.3
2016-Aug-24 01:33N 44°04' W 001°36'3 2.6
2016-Aug-24 00:31N 44°06' W 001°38'1 0.9
2016-Aug-23 23:33N 44°06' W 001°39'2 1.7
2016-Aug-23 22:34N 44°07' W 001°38'3 2.5
2016-Aug-23 21:33N 44°06' W 001°41'1 0.8
2016-Aug-23 20:34N 44°06' W 001°40'8 8.1
2016-Aug-23 19:34N 43°58' W 001°40'10 9.9
2016-Aug-23 18:34N 43°49' W 001°46'1010.0
2016-Aug-23 17:33N 43°41' W 001°53'10 9.8
2016-Aug-23 16:32N 43°32' W 002°01'7 0.7
2016-Aug-23 07:34N 43°38' W 001°56'1110.5
2016-Aug-23 06:33N 43°47' W 001°49'1010.4
2016-Aug-23 05:33N 43°56' W 001°41'7 6.1
2016-Aug-23 04:24N 44°02' W 001°38'1 1.7
2016-Aug-23 03:33N 44°01' W 001°36'  
2016-Aug-19 10:32N 43°18' W 002°12'0 0.0
2016-Aug-19 09:33N 43°18' W 002°12'8 8.2
2016-Aug-19 08:33N 43°25' W 002°05'9 9.2
2016-Aug-19 07:33N 43°33' W 001°58'9 9.4
2016-Aug-19 06:33N 43°40' W 001°50'9 2.7
2016-Aug-19 03:11N 43°46' W 001°41'19 0.7
2016-Aug-18 00:32N 43°28' W 001°49'3 3.5
2016-Aug-17 23:32N 43°26' W 001°45'1 1.0
2016-Aug-17 22:27N 43°27' W 001°46'1 0.8
2016-Aug-17 21:33N 43°27' W 001°47'20 0.6
2016-Aug-16 11:13N 43°18' W 002°12'0 0.0
2016-Aug-16 10:33N 43°18' W 002°12'0 0.0
2016-Aug-16 09:33N 43°18' W 002°12'0 0.0
2016-Aug-16 08:34N 43°18' W 002°12'7 7.1
2016-Aug-16 07:33N 43°24' W 002°06'3110.2
2016-Aug-16 04:33N 43°48' W 001°39'9 0.9
2016-Aug-15 19:17N 43°40' W 001°45'6 8.1
2016-Aug-15 18:33N 43°36' W 001°50'9 8.2
2016-Aug-15 17:27N 43°29' W 001°59'  
Track history (hours):
 
Tides and Currents Weather Stations Pressure Air Temp Water Temp Dewpoint Dewpoint Depression Visibility Wind Speed Wind Dir Waves Ship Positions

F/V Berriz Patxiku

Last reported at 2016-Aug-25 12:33 UTC. Time now 2016-Aug-25 13:14 UTC.
Position N 43°18' W 002°12'.

Length 30 m.

Type: Fishing. MMSI: 224106260.

Date/timePositionNaut miles runAvg speedWind from/ knotsBaromVisibWave heightAir tempDewpointWater temp
2016-Aug-25 12:33N 43°18' W 002°12'0 0.1
2016-Aug-25 09:33N 43°18' W 002°12'1010.6
2016-Aug-25 08:33N 43°28' W 002°05'1110.5
2016-Aug-25 07:33N 43°37' W 001°59'3110.3
2016-Aug-25 04:33N 44°05' W 001°40'9 8.9
2016-Aug-25 03:33N 44°13' W 001°35'0 0.3
2016-Aug-25 02:33N 44°13' W 001°35'1 1.2
2016-Aug-25 01:17N 44°12' W 001°34'3 3.6
2016-Aug-25 00:20N 44°09' W 001°36'7 3.9
2016-Aug-24 22:33N 44°02' W 001°38'12 0.7
2016-Aug-24 04:22N 43°51' W 001°46'911.3
2016-Aug-24 03:33N 43°59' W 001°39'5 4.8
2016-Aug-24 02:33N 44°03' W 001°36'0 0.3
2016-Aug-24 01:33N 44°04' W 001°36'3 2.6
2016-Aug-24 00:31N 44°06' W 001°38'1 0.9
2016-Aug-23 23:33N 44°06' W 001°39'2 1.7
2016-Aug-23 22:34N 44°07' W 001°38'3 2.5
2016-Aug-23 21:33N 44°06' W 001°41'1 0.8
2016-Aug-23 20:34N 44°06' W 001°40'8 8.1
2016-Aug-23 19:34N 43°58' W 001°40'10 9.9
2016-Aug-23 18:34N 43°49' W 001°46'1010.0
2016-Aug-23 17:33N 43°41' W 001°53'10 9.8
2016-Aug-23 16:32N 43°32' W 002°01'7 0.7
2016-Aug-23 07:34N 43°38' W 001°56'1110.5
2016-Aug-23 06:33N 43°47' W 001°49'1010.4
2016-Aug-23 05:33N 43°56' W 001°41'7 6.1
2016-Aug-23 04:24N 44°02' W 001°38'1 1.7
2016-Aug-23 03:33N 44°01' W 001°36'  
2016-Aug-19 10:32N 43°18' W 002°12'0 0.0
2016-Aug-19 09:33N 43°18' W 002°12'8 8.2
2016-Aug-19 08:33N 43°25' W 002°05'9 9.2
2016-Aug-19 07:33N 43°33' W 001°58'9 9.4
2016-Aug-19 06:33N 43°40' W 001°50'9 2.7
2016-Aug-19 03:11N 43°46' W 001°41'19 0.7
2016-Aug-18 00:32N 43°28' W 001°49'3 3.5
2016-Aug-17 23:32N 43°26' W 001°45'1 1.0
2016-Aug-17 22:27N 43°27' W 001°46'1 0.8
2016-Aug-17 21:33N 43°27' W 001°47'20 0.6
2016-Aug-16 11:13N 43°18' W 002°12'0 0.0
2016-Aug-16 10:33N 43°18' W 002°12'0 0.0
2016-Aug-16 09:33N 43°18' W 002°12'0 0.0
2016-Aug-16 08:34N 43°18' W 002°12'7 7.1
2016-Aug-16 07:33N 43°24' W 002°06'3110.2
2016-Aug-16 04:33N 43°48' W 001°39'9 0.9
2016-Aug-15 19:17N 43°40' W 001°45'6 8.1
2016-Aug-15 18:33N 43°36' W 001°50'9 8.2
2016-Aug-15 17:27N 43°29' W 001°59'  

Dump ship's entire track history